Portada
METAR-TAF:

METAR-TAF

Aeroports :

Maurici, Maurici

latitud: 20-26S, longitud: 057-40E, altitud: 55 m

Observació

L'informe es va fer fa 12 minuts, a les 20:00 UTC
Vent 3 kt del Est
Temperatura 25°C
Humitat 74%
Pressió 1013 hPa
Visibilitat 10 km o més
Escasses núvols a una alçada de 1900 ft

METAR: FIMP 242000Z 10003KT 9999 FEW019 25/20 Q1013

Hora: 00:12 (20:12 UTC)

Pronòstic

L'informe es va fer fa 3 hores i 7 minuts, a les 17:05 UTC
Pronòstic vàlid del 24 a les 18 UTC al 26 a les 00 UTC
Vent 8 kt del Est/Sud-Est
Visibilitat 10 km o més
Núvols disperses a una alçada de 1900 ft
Probabilitat 30% :
Temporalment
l' 25 a les 03 UTC al 25 a les 08 UTC
Visibilitat: 7000 m
Escasses núvols a una alçada de 1000 ft
Cel ennuvolat a una alçada de 1600 ft
xàfecs de pluja

TAF: FIMP 241705Z 2418/2600 11008KT 9999 SCT019 PROB30 TEMPO 2503/2508 7000 -SHRA FEW010 BKN016

Observacions i pronòstics meteorològics de més de 4000 aeroports (METAR i TAF).

Les estacions disponibles són els punts grocs i vermells al mapa.

Posi el ratolí al punt desitjat per veure el nom de l'estació.

Feu clic per veure les observacions i els pronòstics meteorològics.

Per canviar el mapa: feu clic els botons verds amb una creu de color negre per apropar; al botó verd amb un guió per allunyar la imatge; o en les fletxes verdes per a mapes adjacents.


METAR-TAF: